sensor_id;sensor_type;location;lat;lon;timestamp;P1;durP1;ratioP1;P2;durP2;ratioP2
4011;SDS011;2020;48.682;9.024;2023-06-22T00:00:48;6.77;;;6.27;;
4011;SDS011;2020;48.682;9.024;2023-06-22T00:03:14;6.53;;;6.10;;
4011;SDS011;2020;48.682;9.024;2023-06-22T00:05:39;6.13;;;5.53;;
4011;SDS011;2020;48.682;9.024;2023-06-22T00:08:07;6.63;;;6.13;;
4011;SDS011;2020;48.682;9.024;2023-06-22T00:10:33;7.10;;;6.23;;
4011;SDS011;2020;48.682;9.024;2023-06-22T00:12:58;5.73;;;5.43;;
4011;SDS011;2020;48.682;9.024;2023-06-22T00:15:24;6.20;;;5.80;;
4011;SDS011;2020;48.682;9.024;2023-06-22T00:17:49;6.57;;;6.07;;
4011;SDS011;2020;48.682;9.024;2023-06-22T00:20:16;8.80;;;6.87;;
4011;SDS011;2020;48.682;9.024;2023-06-22T00:22:43;6.63;;;6.13;;
4011;SDS011;2020;48.682;9.024;2023-06-22T00:25:08;6.83;;;6.27;;
4011;SDS011;2020;48.682;9.024;2023-06-22T00:27:34;5.47;;;5.17;;
4011;SDS011;2020;48.682;9.024;2023-06-22T00:30:00;5.53;;;5.10;;
4011;SDS011;2020;48.682;9.024;2023-06-22T00:32:25;8.90;;;5.50;;
4011;SDS011;2020;48.682;9.024;2023-06-22T00:34:51;5.57;;;5.23;;
4011;SDS011;2020;48.682;9.024;2023-06-22T00:37:16;5.90;;;5.33;;
4011;SDS011;2020;48.682;9.024;2023-06-22T00:39:42;6.33;;;5.83;;
4011;SDS011;2020;48.682;9.024;2023-06-22T00:42:08;6.33;;;5.73;;
4011;SDS011;2020;48.682;9.024;2023-06-22T00:44:34;7.20;;;6.50;;
4011;SDS011;2020;48.682;9.024;2023-06-22T00:47:00;6.00;;;5.67;;
4011;SDS011;2020;48.682;9.024;2023-06-22T00:49:25;6.77;;;6.17;;
4011;SDS011;2020;48.682;9.024;2023-06-22T00:51:51;6.10;;;5.70;;
4011;SDS011;2020;48.682;9.024;2023-06-22T00:54:17;5.40;;;5.10;;
4011;SDS011;2020;48.682;9.024;2023-06-22T00:56:51;6.03;;;5.53;;
4011;SDS011;2020;48.682;9.024;2023-06-22T00:59:19;7.33;;;6.43;;
4011;SDS011;2020;48.682;9.024;2023-06-22T01:01:45;5.60;;;5.20;;
4011;SDS011;2020;48.682;9.024;2023-06-22T01:04:10;6.50;;;6.00;;
4011;SDS011;2020;48.682;9.024;2023-06-22T01:06:38;5.90;;;5.50;;
4011;SDS011;2020;48.682;9.024;2023-06-22T01:09:12;6.03;;;5.60;;
4011;SDS011;2020;48.682;9.024;2023-06-22T01:11:48;6.50;;;5.90;;
4011;SDS011;2020;48.682;9.024;2023-06-22T01:14:23;6.17;;;5.77;;
4011;SDS011;2020;48.682;9.024;2023-06-22T01:17:03;6.63;;;6.10;;
4011;SDS011;2020;48.682;9.024;2023-06-22T01:19:43;7.13;;;6.13;;
4011;SDS011;2020;48.682;9.024;2023-06-22T01:22:15;6.93;;;6.30;;
4011;SDS011;2020;48.682;9.024;2023-06-22T01:25:00;6.37;;;5.90;;
4011;SDS011;2020;48.682;9.024;2023-06-22T01:30:47;6.03;;;5.67;;
4011;SDS011;2020;48.682;9.024;2023-06-22T01:33:14;6.10;;;5.70;;
4011;SDS011;2020;48.682;9.024;2023-06-22T01:35:40;6.43;;;5.93;;
4011;SDS011;2020;48.682;9.024;2023-06-22T01:38:07;6.17;;;5.77;;
4011;SDS011;2020;48.682;9.024;2023-06-22T01:40:34;6.57;;;6.00;;
4011;SDS011;2020;48.682;9.024;2023-06-22T01:43:01;11.40;;;4.60;;
4011;SDS011;2020;48.682;9.024;2023-06-22T01:45:28;7.20;;;6.50;;
4011;SDS011;2020;48.682;9.024;2023-06-22T01:47:53;6.50;;;6.00;;
4011;SDS011;2020;48.682;9.024;2023-06-22T01:50:19;5.83;;;5.40;;
4011;SDS011;2020;48.682;9.024;2023-06-22T01:52:45;6.53;;;6.03;;
4011;SDS011;2020;48.682;9.024;2023-06-22T01:55:10;6.00;;;5.50;;
4011;SDS011;2020;48.682;9.024;2023-06-22T01:57:35;5.87;;;5.43;;
4011;SDS011;2020;48.682;9.024;2023-06-22T02:00:03;7.30;;;6.63;;
4011;SDS011;2020;48.682;9.024;2023-06-22T02:02:33;6.90;;;6.30;;
4011;SDS011;2020;48.682;9.024;2023-06-22T02:05:07;6.13;;;5.83;;
4011;SDS011;2020;48.682;9.024;2023-06-22T02:07:46;6.20;;;5.63;;
4011;SDS011;2020;48.682;9.024;2023-06-22T02:10:17;7.57;;;6.87;;
4011;SDS011;2020;48.682;9.024;2023-06-22T02:12:45;5.97;;;5.47;;
4011;SDS011;2020;48.682;9.024;2023-06-22T02:15:12;6.27;;;5.60;;
4011;SDS011;2020;48.682;9.024;2023-06-22T02:17:39;6.47;;;5.90;;
4011;SDS011;2020;48.682;9.024;2023-06-22T02:20:11;6.50;;;5.87;;
4011;SDS011;2020;48.682;9.024;2023-06-22T02:22:38;5.83;;;5.43;;
4011;SDS011;2020;48.682;9.024;2023-06-22T02:25:03;6.30;;;5.80;;
4011;SDS011;2020;48.682;9.024;2023-06-22T02:27:29;6.47;;;5.97;;
4011;SDS011;2020;48.682;9.024;2023-06-22T02:29:54;5.30;;;5.00;;
4011;SDS011;2020;48.682;9.024;2023-06-22T02:32:19;7.70;;;5.57;;
4011;SDS011;2020;48.682;9.024;2023-06-22T02:34:44;5.87;;;5.43;;
4011;SDS011;2020;48.682;9.024;2023-06-22T02:37:12;5.50;;;5.00;;
4011;SDS011;2020;48.682;9.024;2023-06-22T02:39:39;5.30;;;4.90;;
4011;SDS011;2020;48.682;9.024;2023-06-22T02:42:05;6.00;;;5.60;;
4011;SDS011;2020;48.682;9.024;2023-06-22T02:44:30;6.03;;;5.63;;
4011;SDS011;2020;48.682;9.024;2023-06-22T02:46:56;6.23;;;5.77;;
4011;SDS011;2020;48.682;9.024;2023-06-22T02:49:21;5.73;;;5.40;;
4011;SDS011;2020;48.682;9.024;2023-06-22T02:51:46;5.60;;;5.17;;
4011;SDS011;2020;48.682;9.024;2023-06-22T02:54:13;5.07;;;4.67;;
4011;SDS011;2020;48.682;9.024;2023-06-22T02:56:38;5.03;;;4.63;;
4011;SDS011;2020;48.682;9.024;2023-06-22T02:59:05;5.40;;;5.10;;
4011;SDS011;2020;48.682;9.024;2023-06-22T03:01:31;5.80;;;5.30;;
4011;SDS011;2020;48.682;9.024;2023-06-22T03:04:02;6.53;;;6.00;;
4011;SDS011;2020;48.682;9.024;2023-06-22T03:06:28;7.93;;;5.00;;
4011;SDS011;2020;48.682;9.024;2023-06-22T03:08:58;5.43;;;4.93;;
4011;SDS011;2020;48.682;9.024;2023-06-22T03:11:25;5.70;;;5.30;;
4011;SDS011;2020;48.682;9.024;2023-06-22T03:13:51;6.27;;;5.67;;
4011;SDS011;2020;48.682;9.024;2023-06-22T03:16:17;5.93;;;5.43;;
4011;SDS011;2020;48.682;9.024;2023-06-22T03:18:43;12.10;;;4.57;;
4011;SDS011;2020;48.682;9.024;2023-06-22T03:21:08;6.60;;;5.93;;
4011;SDS011;2020;48.682;9.024;2023-06-22T03:23:34;6.10;;;5.60;;
4011;SDS011;2020;48.682;9.024;2023-06-22T03:25:59;6.80;;;5.47;;
4011;SDS011;2020;48.682;9.024;2023-06-22T03:28:24;7.03;;;5.47;;
4011;SDS011;2020;48.682;9.024;2023-06-22T03:30:49;6.60;;;6.20;;
4011;SDS011;2020;48.682;9.024;2023-06-22T03:33:15;9.00;;;5.30;;
4011;SDS011;2020;48.682;9.024;2023-06-22T03:35:40;6.60;;;5.90;;
4011;SDS011;2020;48.682;9.024;2023-06-22T03:38:05;4.93;;;4.63;;
4011;SDS011;2020;48.682;9.024;2023-06-22T03:40:30;7.73;;;7.00;;
4011;SDS011;2020;48.682;9.024;2023-06-22T03:42:56;5.93;;;5.40;;
4011;SDS011;2020;48.682;9.024;2023-06-22T03:45:21;7.60;;;5.93;;
4011;SDS011;2020;48.682;9.024;2023-06-22T03:47:46;7.00;;;6.23;;
4011;SDS011;2020;48.682;9.024;2023-06-22T03:50:11;5.80;;;5.40;;
4011;SDS011;2020;48.682;9.024;2023-06-22T03:52:37;7.00;;;6.30;;
4011;SDS011;2020;48.682;9.024;2023-06-22T03:55:02;7.20;;;6.50;;
4011;SDS011;2020;48.682;9.024;2023-06-22T03:57:28;5.40;;;5.00;;
4011;SDS011;2020;48.682;9.024;2023-06-22T03:59:54;6.43;;;5.93;;
4011;SDS011;2020;48.682;9.024;2023-06-22T04:02:21;6.17;;;5.60;;
4011;SDS011;2020;48.682;9.024;2023-06-22T04:04:46;6.70;;;6.03;;
4011;SDS011;2020;48.682;9.024;2023-06-22T04:07:11;6.77;;;6.10;;
4011;SDS011;2020;48.682;9.024;2023-06-22T04:09:37;8.30;;;7.10;;
4011;SDS011;2020;48.682;9.024;2023-06-22T04:12:02;7.47;;;6.40;;
4011;SDS011;2020;48.682;9.024;2023-06-22T04:14:27;6.77;;;6.20;;
4011;SDS011;2020;48.682;9.024;2023-06-22T04:16:53;7.30;;;6.70;;
4011;SDS011;2020;48.682;9.024;2023-06-22T04:19:18;7.33;;;6.63;;
4011;SDS011;2020;48.682;9.024;2023-06-22T04:21:43;7.43;;;6.73;;
4011;SDS011;2020;48.682;9.024;2023-06-22T04:24:09;7.90;;;6.70;;
4011;SDS011;2020;48.682;9.024;2023-06-22T04:26:35;6.87;;;6.17;;
4011;SDS011;2020;48.682;9.024;2023-06-22T04:29:02;6.80;;;5.90;;
4011;SDS011;2020;48.682;9.024;2023-06-22T04:31:30;8.70;;;6.40;;
4011;SDS011;2020;48.682;9.024;2023-06-22T04:33:57;7.63;;;6.90;;
4011;SDS011;2020;48.682;9.024;2023-06-22T04:36:22;12.70;;;5.83;;
4011;SDS011;2020;48.682;9.024;2023-06-22T04:38:48;6.70;;;6.10;;
4011;SDS011;2020;48.682;9.024;2023-06-22T04:41:14;5.27;;;4.80;;
4011;SDS011;2020;48.682;9.024;2023-06-22T04:43:48;7.00;;;6.20;;
4011;SDS011;2020;48.682;9.024;2023-06-22T04:46:18;5.53;;;5.13;;
4011;SDS011;2020;48.682;9.024;2023-06-22T04:48:44;5.13;;;4.80;;
4011;SDS011;2020;48.682;9.024;2023-06-22T04:51:09;5.97;;;5.47;;
4011;SDS011;2020;48.682;9.024;2023-06-22T04:53:35;6.30;;;5.80;;
4011;SDS011;2020;48.682;9.024;2023-06-22T04:56:00;5.67;;;5.33;;
4011;SDS011;2020;48.682;9.024;2023-06-22T04:58:26;8.63;;;6.50;;
4011;SDS011;2020;48.682;9.024;2023-06-22T05:00:53;5.70;;;5.30;;
4011;SDS011;2020;48.682;9.024;2023-06-22T05:03:21;6.07;;;5.47;;
4011;SDS011;2020;48.682;9.024;2023-06-22T05:05:47;5.73;;;5.37;;
4011;SDS011;2020;48.682;9.024;2023-06-22T05:08:12;10.73;;;6.07;;
4011;SDS011;2020;48.682;9.024;2023-06-22T05:10:38;5.40;;;5.00;;
4011;SDS011;2020;48.682;9.024;2023-06-22T05:13:03;7.63;;;5.73;;
4011;SDS011;2020;48.682;9.024;2023-06-22T05:15:29;5.87;;;5.37;;
4011;SDS011;2020;48.682;9.024;2023-06-22T05:17:55;6.20;;;4.93;;
4011;SDS011;2020;48.682;9.024;2023-06-22T05:20:21;5.77;;;5.37;;
4011;SDS011;2020;48.682;9.024;2023-06-22T05:22:46;5.13;;;4.83;;
4011;SDS011;2020;48.682;9.024;2023-06-22T05:25:12;5.13;;;4.83;;
4011;SDS011;2020;48.682;9.024;2023-06-22T05:27:38;5.90;;;5.40;;
4011;SDS011;2020;48.682;9.024;2023-06-22T05:30:05;4.43;;;4.20;;
4011;SDS011;2020;48.682;9.024;2023-06-22T05:32:31;4.97;;;4.67;;
4011;SDS011;2020;48.682;9.024;2023-06-22T05:34:57;5.20;;;4.70;;
4011;SDS011;2020;48.682;9.024;2023-06-22T05:37:22;5.00;;;4.60;;
4011;SDS011;2020;48.682;9.024;2023-06-22T05:39:47;5.50;;;5.00;;
4011;SDS011;2020;48.682;9.024;2023-06-22T05:42:13;5.93;;;4.70;;
4011;SDS011;2020;48.682;9.024;2023-06-22T05:44:38;5.80;;;3.90;;
4011;SDS011;2020;48.682;9.024;2023-06-22T05:47:05;4.10;;;3.90;;
4011;SDS011;2020;48.682;9.024;2023-06-22T05:49:30;5.37;;;4.83;;
4011;SDS011;2020;48.682;9.024;2023-06-22T05:51:57;4.53;;;4.13;;
4011;SDS011;2020;48.682;9.024;2023-06-22T05:54:23;4.37;;;4.10;;
4011;SDS011;2020;48.682;9.024;2023-06-22T05:56:48;4.23;;;3.90;;
4011;SDS011;2020;48.682;9.024;2023-06-22T05:59:13;4.30;;;4.00;;
4011;SDS011;2020;48.682;9.024;2023-06-22T06:01:39;5.10;;;4.60;;
4011;SDS011;2020;48.682;9.024;2023-06-22T06:04:05;4.77;;;4.43;;
4011;SDS011;2020;48.682;9.024;2023-06-22T06:06:33;3.90;;;3.60;;
4011;SDS011;2020;48.682;9.024;2023-06-22T06:08:59;5.23;;;4.67;;
4011;SDS011;2020;48.682;9.024;2023-06-22T06:11:25;4.77;;;3.97;;
4011;SDS011;2020;48.682;9.024;2023-06-22T06:13:51;6.63;;;3.63;;
4011;SDS011;2020;48.682;9.024;2023-06-22T06:16:16;3.40;;;3.10;;
4011;SDS011;2020;48.682;9.024;2023-06-22T06:18:41;4.40;;;4.00;;
4011;SDS011;2020;48.682;9.024;2023-06-22T06:21:06;5.57;;;5.17;;
4011;SDS011;2020;48.682;9.024;2023-06-22T06:23:32;3.47;;;3.37;;
4011;SDS011;2020;48.682;9.024;2023-06-22T06:25:57;3.17;;;2.97;;
4011;SDS011;2020;48.682;9.024;2023-06-22T06:28:24;5.00;;;4.60;;
4011;SDS011;2020;48.682;9.024;2023-06-22T06:30:50;4.57;;;4.27;;
4011;SDS011;2020;48.682;9.024;2023-06-22T06:33:16;3.67;;;3.47;;
4011;SDS011;2020;48.682;9.024;2023-06-22T06:35:42;6.80;;;3.50;;
4011;SDS011;2020;48.682;9.024;2023-06-22T06:38:07;4.57;;;3.70;;
4011;SDS011;2020;48.682;9.024;2023-06-22T06:40:32;4.10;;;3.90;;
4011;SDS011;2020;48.682;9.024;2023-06-22T06:42:57;4.50;;;4.30;;
4011;SDS011;2020;48.682;9.024;2023-06-22T06:45:23;3.73;;;3.43;;
4011;SDS011;2020;48.682;9.024;2023-06-22T06:47:49;4.10;;;3.90;;
4011;SDS011;2020;48.682;9.024;2023-06-22T06:50:16;4.17;;;3.87;;
4011;SDS011;2020;48.682;9.024;2023-06-22T06:52:41;4.70;;;3.47;;
4011;SDS011;2020;48.682;9.024;2023-06-22T06:55:07;3.50;;;3.33;;
4011;SDS011;2020;48.682;9.024;2023-06-22T06:57:35;5.07;;;3.47;;
4011;SDS011;2020;48.682;9.024;2023-06-22T07:00:02;4.53;;;3.90;;
4011;SDS011;2020;48.682;9.024;2023-06-22T07:02:35;4.37;;;3.97;;
4011;SDS011;2020;48.682;9.024;2023-06-22T07:05:00;3.53;;;3.23;;
4011;SDS011;2020;48.682;9.024;2023-06-22T07:07:29;3.83;;;3.63;;
4011;SDS011;2020;48.682;9.024;2023-06-22T07:09:54;4.27;;;2.73;;
4011;SDS011;2020;48.682;9.024;2023-06-22T07:12:19;2.90;;;2.80;;
4011;SDS011;2020;48.682;9.024;2023-06-22T07:14:44;3.47;;;3.17;;
4011;SDS011;2020;48.682;9.024;2023-06-22T07:17:10;3.57;;;3.43;;
4011;SDS011;2020;48.682;9.024;2023-06-22T07:19:35;4.30;;;3.57;;
4011;SDS011;2020;48.682;9.024;2023-06-22T07:22:00;4.60;;;3.13;;
4011;SDS011;2020;48.682;9.024;2023-06-22T07:24:26;3.40;;;3.10;;
4011;SDS011;2020;48.682;9.024;2023-06-22T07:26:52;3.60;;;3.50;;
4011;SDS011;2020;48.682;9.024;2023-06-22T07:29:17;3.80;;;3.50;;
4011;SDS011;2020;48.682;9.024;2023-06-22T07:31:43;4.90;;;4.20;;
4011;SDS011;2020;48.682;9.024;2023-06-22T07:34:09;3.07;;;2.73;;
4011;SDS011;2020;48.682;9.024;2023-06-22T07:36:34;3.87;;;3.60;;
4011;SDS011;2020;48.682;9.024;2023-06-22T07:39:01;3.37;;;3.00;;
4011;SDS011;2020;48.682;9.024;2023-06-22T07:41:28;2.83;;;2.73;;
4011;SDS011;2020;48.682;9.024;2023-06-22T07:43:53;3.40;;;3.13;;
4011;SDS011;2020;48.682;9.024;2023-06-22T07:46:19;4.23;;;3.93;;
4011;SDS011;2020;48.682;9.024;2023-06-22T07:48:44;3.07;;;2.97;;
4011;SDS011;2020;48.682;9.024;2023-06-22T07:51:09;3.60;;;3.40;;
4011;SDS011;2020;48.682;9.024;2023-06-22T07:53:37;4.83;;;3.97;;
4011;SDS011;2020;48.682;9.024;2023-06-22T07:56:05;4.40;;;4.20;;
4011;SDS011;2020;48.682;9.024;2023-06-22T07:58:32;3.73;;;3.33;;
4011;SDS011;2020;48.682;9.024;2023-06-22T08:00:57;4.10;;;3.67;;
4011;SDS011;2020;48.682;9.024;2023-06-22T08:03:22;3.67;;;3.47;;
4011;SDS011;2020;48.682;9.024;2023-06-22T08:05:48;3.53;;;3.33;;
4011;SDS011;2020;48.682;9.024;2023-06-22T08:08:13;4.60;;;3.50;;
4011;SDS011;2020;48.682;9.024;2023-06-22T08:10:39;2.90;;;2.80;;
4011;SDS011;2020;48.682;9.024;2023-06-22T08:13:05;4.43;;;4.03;;
4011;SDS011;2020;48.682;9.024;2023-06-22T08:15:31;3.60;;;3.30;;
4011;SDS011;2020;48.682;9.024;2023-06-22T08:17:56;8.10;;;4.53;;
4011;SDS011;2020;48.682;9.024;2023-06-22T08:20:22;4.00;;;3.70;;
4011;SDS011;2020;48.682;9.024;2023-06-22T08:22:48;3.90;;;3.60;;
4011;SDS011;2020;48.682;9.024;2023-06-22T08:25:14;6.33;;;3.93;;
4011;SDS011;2020;48.682;9.024;2023-06-22T08:27:39;3.20;;;3.00;;
4011;SDS011;2020;48.682;9.024;2023-06-22T08:30:06;4.27;;;3.97;;
4011;SDS011;2020;48.682;9.024;2023-06-22T08:32:32;4.20;;;3.93;;
4011;SDS011;2020;48.682;9.024;2023-06-22T08:35:00;6.10;;;3.87;;
4011;SDS011;2020;48.682;9.024;2023-06-22T08:37:25;5.43;;;3.60;;
4011;SDS011;2020;48.682;9.024;2023-06-22T08:39:58;3.97;;;3.70;;
4011;SDS011;2020;48.682;9.024;2023-06-22T08:42:24;5.27;;;4.10;;
4011;SDS011;2020;48.682;9.024;2023-06-22T08:44:50;4.00;;;3.70;;
4011;SDS011;2020;48.682;9.024;2023-06-22T08:47:16;7.37;;;4.30;;
4011;SDS011;2020;48.682;9.024;2023-06-22T08:49:41;8.23;;;4.47;;
4011;SDS011;2020;48.682;9.024;2023-06-22T08:52:06;4.13;;;3.83;;
4011;SDS011;2020;48.682;9.024;2023-06-22T08:54:32;3.67;;;3.47;;
4011;SDS011;2020;48.682;9.024;2023-06-22T08:56:59;4.70;;;4.40;;
4011;SDS011;2020;48.682;9.024;2023-06-22T08:59:24;4.40;;;4.10;;
4011;SDS011;2020;48.682;9.024;2023-06-22T09:01:50;4.60;;;4.30;;
4011;SDS011;2020;48.682;9.024;2023-06-22T09:04:15;5.80;;;4.40;;
4011;SDS011;2020;48.682;9.024;2023-06-22T09:06:40;6.70;;;4.77;;
4011;SDS011;2020;48.682;9.024;2023-06-22T09:09:10;4.60;;;3.63;;
4011;SDS011;2020;48.682;9.024;2023-06-22T09:11:35;4.97;;;4.27;;
4011;SDS011;2020;48.682;9.024;2023-06-22T09:14:01;4.60;;;4.30;;
4011;SDS011;2020;48.682;9.024;2023-06-22T09:16:26;4.23;;;3.83;;
4011;SDS011;2020;48.682;9.024;2023-06-22T09:18:51;4.50;;;4.23;;
4011;SDS011;2020;48.682;9.024;2023-06-22T09:21:16;4.17;;;3.73;;
4011;SDS011;2020;48.682;9.024;2023-06-22T09:23:42;4.57;;;4.20;;
4011;SDS011;2020;48.682;9.024;2023-06-22T09:26:08;3.63;;;3.53;;
4011;SDS011;2020;48.682;9.024;2023-06-22T09:28:33;9.30;;;4.00;;
4011;SDS011;2020;48.682;9.024;2023-06-22T09:30:59;4.07;;;3.80;;
4011;SDS011;2020;48.682;9.024;2023-06-22T09:33:25;4.10;;;3.80;;
4011;SDS011;2020;48.682;9.024;2023-06-22T09:35:51;3.80;;;3.60;;
4011;SDS011;2020;48.682;9.024;2023-06-22T09:38:17;4.53;;;4.13;;
4011;SDS011;2020;48.682;9.024;2023-06-22T09:40:42;3.93;;;3.60;;
4011;SDS011;2020;48.682;9.024;2023-06-22T09:43:07;4.20;;;4.00;;
4011;SDS011;2020;48.682;9.024;2023-06-22T09:45:33;5.23;;;4.73;;
4011;SDS011;2020;48.682;9.024;2023-06-22T09:47:58;6.60;;;4.20;;
4011;SDS011;2020;48.682;9.024;2023-06-22T09:50:24;4.27;;;3.97;;
4011;SDS011;2020;48.682;9.024;2023-06-22T09:52:49;4.60;;;3.87;;
4011;SDS011;2020;48.682;9.024;2023-06-22T09:55:19;3.33;;;3.23;;
4011;SDS011;2020;48.682;9.024;2023-06-22T09:57:45;5.30;;;4.10;;
4011;SDS011;2020;48.682;9.024;2023-06-22T10:00:10;5.27;;;4.10;;
4011;SDS011;2020;48.682;9.024;2023-06-22T10:02:41;4.03;;;3.87;;
4011;SDS011;2020;48.682;9.024;2023-06-22T10:05:06;4.47;;;4.07;;
4011;SDS011;2020;48.682;9.024;2023-06-22T10:07:32;3.67;;;3.47;;
4011;SDS011;2020;48.682;9.024;2023-06-22T10:09:58;6.00;;;4.00;;
4011;SDS011;2020;48.682;9.024;2023-06-22T10:12:23;3.87;;;3.57;;
4011;SDS011;2020;48.682;9.024;2023-06-22T10:14:48;3.83;;;3.60;;
4011;SDS011;2020;48.682;9.024;2023-06-22T10:17:13;3.73;;;3.53;;
4011;SDS011;2020;48.682;9.024;2023-06-22T10:19:39;3.50;;;3.30;;
4011;SDS011;2020;48.682;9.024;2023-06-22T10:22:06;6.63;;;4.33;;
4011;SDS011;2020;48.682;9.024;2023-06-22T10:24:31;4.87;;;4.67;;
4011;SDS011;2020;48.682;9.024;2023-06-22T10:26:56;4.30;;;4.10;;
4011;SDS011;2020;48.682;9.024;2023-06-22T10:29:22;4.27;;;3.87;;
4011;SDS011;2020;48.682;9.024;2023-06-22T10:31:47;3.47;;;3.27;;
4011;SDS011;2020;48.682;9.024;2023-06-22T10:34:12;3.93;;;3.70;;
4011;SDS011;2020;48.682;9.024;2023-06-22T10:36:38;4.30;;;4.10;;
4011;SDS011;2020;48.682;9.024;2023-06-22T10:39:03;4.27;;;3.83;;
4011;SDS011;2020;48.682;9.024;2023-06-22T10:41:29;5.40;;;3.90;;
4011;SDS011;2020;48.682;9.024;2023-06-22T10:43:55;3.93;;;3.67;;
4011;SDS011;2020;48.682;9.024;2023-06-22T10:46:21;6.03;;;3.93;;
4011;SDS011;2020;48.682;9.024;2023-06-22T10:48:46;4.73;;;4.43;;
4011;SDS011;2020;48.682;9.024;2023-06-22T10:51:11;3.67;;;3.47;;
4011;SDS011;2020;48.682;9.024;2023-06-22T10:53:37;4.10;;;3.80;;
4011;SDS011;2020;48.682;9.024;2023-06-22T10:56:02;4.50;;;4.20;;
4011;SDS011;2020;48.682;9.024;2023-06-22T10:58:27;4.83;;;4.47;;
4011;SDS011;2020;48.682;9.024;2023-06-22T11:00:52;5.83;;;5.30;;
4011;SDS011;2020;48.682;9.024;2023-06-22T11:03:18;4.83;;;4.00;;
4011;SDS011;2020;48.682;9.024;2023-06-22T11:05:43;4.00;;;3.73;;
4011;SDS011;2020;48.682;9.024;2023-06-22T11:08:08;9.83;;;4.20;;
4011;SDS011;2020;48.682;9.024;2023-06-22T11:10:34;4.17;;;3.87;;
4011;SDS011;2020;48.682;9.024;2023-06-22T11:12:59;8.43;;;4.07;;
4011;SDS011;2020;48.682;9.024;2023-06-22T11:15:25;3.97;;;3.77;;
4011;SDS011;2020;48.682;9.024;2023-06-22T11:17:50;4.03;;;3.80;;
4011;SDS011;2020;48.682;9.024;2023-06-22T11:20:15;4.10;;;3.90;;
4011;SDS011;2020;48.682;9.024;2023-06-22T11:22:41;4.50;;;3.73;;
4011;SDS011;2020;48.682;9.024;2023-06-22T11:25:06;4.90;;;3.73;;
4011;SDS011;2020;48.682;9.024;2023-06-22T11:27:32;3.60;;;3.40;;
4011;SDS011;2020;48.682;9.024;2023-06-22T11:29:58;3.83;;;3.63;;
4011;SDS011;2020;48.682;9.024;2023-06-22T11:32:23;5.07;;;3.90;;
4011;SDS011;2020;48.682;9.024;2023-06-22T11:34:49;4.30;;;4.00;;
4011;SDS011;2020;48.682;9.024;2023-06-22T11:37:14;7.33;;;4.00;;
4011;SDS011;2020;48.682;9.024;2023-06-22T11:39:40;4.40;;;4.07;;
4011;SDS011;2020;48.682;9.024;2023-06-22T11:42:06;4.60;;;4.20;;
4011;SDS011;2020;48.682;9.024;2023-06-22T11:44:31;4.87;;;4.47;;
4011;SDS011;2020;48.682;9.024;2023-06-22T11:46:56;4.13;;;3.93;;
4011;SDS011;2020;48.682;9.024;2023-06-22T11:49:21;4.60;;;3.70;;
4011;SDS011;2020;48.682;9.024;2023-06-22T11:51:47;8.90;;;4.30;;
4011;SDS011;2020;48.682;9.024;2023-06-22T11:54:12;6.83;;;4.80;;
4011;SDS011;2020;48.682;9.024;2023-06-22T11:56:37;11.57;;;4.57;;
4011;SDS011;2020;48.682;9.024;2023-06-22T11:59:03;7.63;;;4.37;;
4011;SDS011;2020;48.682;9.024;2023-06-22T12:01:28;6.20;;;3.70;;
4011;SDS011;2020;48.682;9.024;2023-06-22T12:03:53;4.63;;;4.27;;
4011;SDS011;2020;48.682;9.024;2023-06-22T12:06:18;4.40;;;4.10;;
4011;SDS011;2020;48.682;9.024;2023-06-22T12:08:43;5.23;;;4.73;;
4011;SDS011;2020;48.682;9.024;2023-06-22T12:11:09;4.63;;;4.33;;
4011;SDS011;2020;48.682;9.024;2023-06-22T12:13:34;5.10;;;4.63;;
4011;SDS011;2020;48.682;9.024;2023-06-22T12:15:59;5.53;;;4.53;;
4011;SDS011;2020;48.682;9.024;2023-06-22T12:18:24;4.10;;;3.80;;
4011;SDS011;2020;48.682;9.024;2023-06-22T12:20:50;5.47;;;5.13;;
4011;SDS011;2020;48.682;9.024;2023-06-22T12:23:15;4.70;;;4.40;;
4011;SDS011;2020;48.682;9.024;2023-06-22T12:25:40;5.00;;;4.43;;
4011;SDS011;2020;48.682;9.024;2023-06-22T12:28:06;4.90;;;4.60;;
4011;SDS011;2020;48.682;9.024;2023-06-22T12:30:34;4.90;;;4.50;;
4011;SDS011;2020;48.682;9.024;2023-06-22T12:32:59;5.33;;;5.03;;
4011;SDS011;2020;48.682;9.024;2023-06-22T12:35:24;5.00;;;4.70;;
4011;SDS011;2020;48.682;9.024;2023-06-22T12:37:50;4.97;;;4.57;;
4011;SDS011;2020;48.682;9.024;2023-06-22T12:40:15;4.83;;;4.37;;
4011;SDS011;2020;48.682;9.024;2023-06-22T12:42:40;6.23;;;4.47;;
4011;SDS011;2020;48.682;9.024;2023-06-22T12:45:06;4.60;;;4.10;;
4011;SDS011;2020;48.682;9.024;2023-06-22T12:47:32;5.53;;;4.70;;
4011;SDS011;2020;48.682;9.024;2023-06-22T12:49:58;8.13;;;4.47;;
4011;SDS011;2020;48.682;9.024;2023-06-22T12:52:23;5.50;;;5.00;;
4011;SDS011;2020;48.682;9.024;2023-06-22T12:54:48;4.60;;;4.20;;
4011;SDS011;2020;48.682;9.024;2023-06-22T12:57:13;4.63;;;4.43;;
4011;SDS011;2020;48.682;9.024;2023-06-22T12:59:39;4.90;;;4.60;;
4011;SDS011;2020;48.682;9.024;2023-06-22T13:02:04;5.83;;;4.80;;
4011;SDS011;2020;48.682;9.024;2023-06-22T13:04:30;7.73;;;5.60;;
4011;SDS011;2020;48.682;9.024;2023-06-22T13:06:55;5.07;;;4.47;;
4011;SDS011;2020;48.682;9.024;2023-06-22T13:09:21;9.33;;;5.00;;
4011;SDS011;2020;48.682;9.024;2023-06-22T13:11:46;7.87;;;3.90;;
4011;SDS011;2020;48.682;9.024;2023-06-22T13:14:11;5.23;;;4.80;;
4011;SDS011;2020;48.682;9.024;2023-06-22T13:16:36;4.90;;;4.50;;
4011;SDS011;2020;48.682;9.024;2023-06-22T13:19:02;4.10;;;3.80;;
4011;SDS011;2020;48.682;9.024;2023-06-22T13:21:27;7.13;;;4.37;;
4011;SDS011;2020;48.682;9.024;2023-06-22T13:23:53;4.40;;;4.00;;
4011;SDS011;2020;48.682;9.024;2023-06-22T13:26:18;5.03;;;4.60;;
4011;SDS011;2020;48.682;9.024;2023-06-22T13:28:43;4.90;;;4.67;;
4011;SDS011;2020;48.682;9.024;2023-06-22T13:31:09;5.43;;;4.70;;
4011;SDS011;2020;48.682;9.024;2023-06-22T13:33:34;6.97;;;4.87;;
4011;SDS011;2020;48.682;9.024;2023-06-22T13:35:59;7.57;;;4.77;;
4011;SDS011;2020;48.682;9.024;2023-06-22T13:38:25;5.37;;;3.63;;
4011;SDS011;2020;48.682;9.024;2023-06-22T13:40:50;3.70;;;3.50;;
4011;SDS011;2020;48.682;9.024;2023-06-22T13:43:16;3.47;;;3.27;;
4011;SDS011;2020;48.682;9.024;2023-06-22T13:45:41;4.63;;;4.17;;
4011;SDS011;2020;48.682;9.024;2023-06-22T13:48:07;4.50;;;4.10;;
4011;SDS011;2020;48.682;9.024;2023-06-22T13:50:32;6.00;;;4.43;;
4011;SDS011;2020;48.682;9.024;2023-06-22T13:52:58;4.37;;;4.00;;
4011;SDS011;2020;48.682;9.024;2023-06-22T13:55:23;4.57;;;3.70;;
4011;SDS011;2020;48.682;9.024;2023-06-22T13:57:48;3.40;;;3.30;;
4011;SDS011;2020;48.682;9.024;2023-06-22T14:00:14;4.33;;;3.87;;
4011;SDS011;2020;48.682;9.024;2023-06-22T14:02:40;5.30;;;4.30;;
4011;SDS011;2020;48.682;9.024;2023-06-22T14:05:06;4.70;;;4.30;;
4011;SDS011;2020;48.682;9.024;2023-06-22T14:07:32;3.83;;;3.63;;
4011;SDS011;2020;48.682;9.024;2023-06-22T14:09:57;4.23;;;4.00;;
4011;SDS011;2020;48.682;9.024;2023-06-22T14:12:23;4.07;;;3.17;;
4011;SDS011;2020;48.682;9.024;2023-06-22T14:14:48;4.33;;;4.03;;
4011;SDS011;2020;48.682;9.024;2023-06-22T14:17:14;3.57;;;3.33;;
4011;SDS011;2020;48.682;9.024;2023-06-22T14:19:39;3.73;;;3.53;;
4011;SDS011;2020;48.682;9.024;2023-06-22T14:22:04;3.03;;;2.83;;
4011;SDS011;2020;48.682;9.024;2023-06-22T14:24:30;2.13;;;2.03;;
4011;SDS011;2020;48.682;9.024;2023-06-22T14:26:55;5.57;;;2.93;;
4011;SDS011;2020;48.682;9.024;2023-06-22T14:29:24;3.73;;;2.80;;
4011;SDS011;2020;48.682;9.024;2023-06-22T14:31:50;3.73;;;2.53;;
4011;SDS011;2020;48.682;9.024;2023-06-22T14:34:15;6.57;;;2.97;;
4011;SDS011;2020;48.682;9.024;2023-06-22T14:36:42;2.60;;;2.40;;
4011;SDS011;2020;48.682;9.024;2023-06-22T14:39:08;2.00;;;1.90;;
4011;SDS011;2020;48.682;9.024;2023-06-22T14:41:34;3.90;;;2.37;;
4011;SDS011;2020;48.682;9.024;2023-06-22T14:43:59;2.43;;;2.00;;
4011;SDS011;2020;48.682;9.024;2023-06-22T14:46:24;2.60;;;2.50;;
4011;SDS011;2020;48.682;9.024;2023-06-22T14:48:49;2.27;;;1.30;;
4011;SDS011;2020;48.682;9.024;2023-06-22T14:51:15;2.13;;;1.93;;
4011;SDS011;2020;48.682;9.024;2023-06-22T14:53:41;5.03;;;1.87;;
4011;SDS011;2020;48.682;9.024;2023-06-22T14:56:07;2.77;;;1.40;;
4011;SDS011;2020;48.682;9.024;2023-06-22T14:58:33;7.57;;;2.23;;
4011;SDS011;2020;48.682;9.024;2023-06-22T15:00:59;3.10;;;1.50;;
4011;SDS011;2020;48.682;9.024;2023-06-22T15:03:25;1.60;;;1.50;;
4011;SDS011;2020;48.682;9.024;2023-06-22T15:05:53;6.90;;;2.10;;
4011;SDS011;2020;48.682;9.024;2023-06-22T15:08:18;2.97;;;1.67;;
4011;SDS011;2020;48.682;9.024;2023-06-22T15:10:44;5.63;;;2.10;;